.
WxDataArchive / Data Records for 2015-08-28
2015-08-27 August 2015 2015-08-29

Data Records for Friday, 28 August 2015

Time	Temp	Chill	HIndex	Humid	Dewpt	 Wind 	HiWind	WindDir	Rain 	Barom
-----	----	-----	------	-----	-----	------	------	-------	-----	-----
00:00	59.9	59.9	59.9	85	55.4	0	1	90	0.00	30.123 
00:05	59.9	59.9	59.9	85	55.4	0	1	90	0.00	30.123 
00:10	59.9	59.9	59.9	85	55.4	0	1	90	0.00	30.123 
00:15	59.8	59.8	59.8	85	55.3	0	1	90	0.00	30.123 
00:20	59.8	59.8	59.8	86	55.6	0	3	90	0.00	30.123 
00:25	59.8	59.8	59.8	86	55.6	0	3	90	0.00	30.123 
00:30	59.8	59.8	59.8	86	55.6	0	1	90	0.00	30.122 
00:35	59.8	59.8	59.8	86	55.6	0	2	90	0.00	30.122 
00:40	59.8	59.8	59.8	86	55.6	0	3	90	0.00	30.122 
00:45	59.6	59.6	59.6	86	55.4	0	1	90	0.00	30.125 
00:50	59.6	59.6	59.6	87	55.7	0	2	90	0.00	30.125 
00:55	59.6	59.6	59.6	87	55.7	0	1	90	0.00	30.125 
01:00	59.5	59.5	59.5	87	55.6	0	1	90	0.00	30.122 
01:05	59.3	59.3	59.3	87	55.4	0	1	90	0.00	30.122 
01:10	59.2	59.2	59.2	87	55.3	0	1	90	0.00	30.122 
01:15	59.2	59.2	59.2	88	55.6	0	1	90	0.00	30.122 
01:20	59.0	59.0	59.0	88	55.4	0	0	---	0.00	30.122 
01:25	58.9	58.9	58.9	88	55.3	0	0	---	0.00	30.122 
01:30	58.7	58.7	58.7	88	55.2	0	0	---	0.00	30.126 
01:35	58.6	58.6	58.6	88	55.1	0	0	---	0.00	30.126 
01:40	58.3	58.3	58.3	88	54.8	0	0	---	0.00	30.126 
01:45	58.1	58.1	58.1	88	54.6	0	0	---	0.00	30.130 
01:50	58.0	58.0	58.0	88	54.5	0	0	---	0.00	30.130 
01:55	57.6	57.6	57.6	88	54.1	0	0	---	0.00	30.130 
02:00	57.5	57.5	57.5	89	54.3	0	0	---	0.00	30.128 
02:05	57.3	57.3	57.3	89	54.1	0	0	---	0.00	30.128 
02:10	57.2	57.2	57.2	89	54.0	0	0	---	0.00	30.128 
02:15	57.0	57.0	57.0	89	53.8	0	0	---	0.00	30.125 
02:20	56.9	56.9	56.9	90	54.0	0	0	---	0.00	30.125 
02:25	56.7	56.7	56.7	90	53.8	0	0	---	0.00	30.125 
02:30	56.7	56.7	56.7	90	53.8	0	0	---	0.00	30.125 
02:35	56.6	56.6	56.6	90	53.7	0	0	---	0.00	30.125 
02:40	56.5	56.5	56.5	91	53.9	0	0	---	0.00	30.125 
02:45	56.3	56.3	56.3	91	53.7	0	0	---	0.00	30.130 
02:50	56.2	56.2	56.2	91	53.6	0	0	---	0.00	30.130 
02:55	56.0	56.0	56.0	91	53.4	0	0	---	0.00	30.130 
03:00	55.9	55.9	55.9	91	53.3	0	0	---	0.00	30.125 
03:05	55.7	55.7	55.7	91	53.1	0	0	---	0.00	30.125 
03:10	55.6	55.6	55.6	91	53.0	0	0	---	0.00	30.125 
03:15	55.4	55.4	55.4	91	52.8	0	0	---	0.00	30.124 
03:20	55.3	55.3	55.3	92	53.0	0	0	---	0.00	30.124 
03:25	55.3	55.3	55.3	92	53.0	0	0	---	0.00	30.124 
03:30	55.1	55.1	55.1	92	52.8	0	0	---	0.00	30.122 
03:35	55.1	55.1	55.1	92	52.8	0	0	---	0.00	30.122 
03:40	55.1	55.1	55.1	92	52.8	0	0	---	0.00	30.122 
03:45	55.0	55.0	55.0	92	52.7	0	0	---	0.00	30.122 
03:50	55.0	55.0	55.0	92	52.7	0	0	---	0.00	30.122 
03:55	55.0	55.0	55.0	92	52.7	0	0	---	0.00	30.122 
04:00	55.1	55.1	55.1	92	52.8	0	0	---	0.00	30.124 
04:05	55.1	55.1	55.1	93	53.1	0	0	---	0.00	30.124 
04:10	55.1	55.1	55.1	93	53.1	0	0	---	0.00	30.124 
04:15	55.1	55.1	55.1	93	53.1	0	0	---	0.00	30.123 
04:20	55.3	55.3	55.3	93	53.3	0	0	---	0.00	30.123 
04:25	55.4	55.4	55.4	93	53.4	0	0	---	0.00	30.123 
04:30	55.4	55.4	55.4	93	53.4	0	0	---	0.00	30.123 
04:35	55.4	55.4	55.4	93	53.4	0	0	---	0.00	30.123 
04:40	55.6	55.6	55.6	94	53.9	0	1	90	0.00	30.123 
04:45	55.7	55.7	55.7	94	54.0	0	0	---	0.00	30.120 
04:50	55.7	55.7	55.7	94	54.0	0	0	---	0.00	30.120 
04:55	55.6	55.6	55.6	94	53.9	0	0	---	0.00	30.120 
05:00	55.6	55.6	55.6	94	53.9	0	0	---	0.00	30.125 
05:05	55.3	55.3	55.3	94	53.6	0	0	---	0.00	30.125 
05:10	55.3	55.3	55.3	94	53.6	0	0	---	0.00	30.125 
05:15	55.1	55.1	55.1	94	53.4	0	0	---	0.00	30.136 
05:20	55.1	55.1	55.1	94	53.4	0	0	---	0.00	30.136 
05:25	55.1	55.1	55.1	94	53.4	0	0	---	0.00	30.136 
05:30	55.1	55.1	55.1	94	53.4	0	0	---	0.00	30.138 
05:35	55.1	55.1	55.1	94	53.4	0	0	---	0.00	30.138 
05:40	55.3	55.3	55.3	94	53.6	0	0	---	0.00	30.138 
05:45	55.3	55.3	55.3	94	53.6	0	0	---	0.00	30.137 
05:50	55.4	55.4	55.4	94	53.7	0	0	---	0.00	30.137 
05:55	55.3	55.3	55.3	94	53.6	0	0	---	0.00	30.137 
06:00	55.3	55.3	55.3	94	53.6	0	0	---	0.00	30.140 
06:05	55.1	55.1	55.1	94	53.4	0	0	---	0.00	30.140 
06:10	55.0	55.0	55.0	94	53.3	0	0	---	0.00	30.140 
06:15	55.0	55.0	55.0	94	53.3	0	0	---	0.00	30.141 
06:20	54.8	54.8	54.8	94	53.1	0	0	---	0.00	30.141 
06:25	55.0	55.0	55.0	94	53.3	0	0	---	0.00	30.141 
06:30	54.8	54.8	54.8	94	53.1	0	0	---	0.00	30.140 
06:35	54.8	54.8	54.8	94	53.1	0	0	---	0.00	30.140 
06:40	54.8	54.8	54.8	94	53.1	0	0	---	0.00	30.140 
06:45	54.7	54.7	54.7	94	53.0	0	0	---	0.00	30.140 
06:50	54.7	54.7	54.7	94	53.0	0	0	---	0.00	30.140 
06:55	54.5	54.5	54.5	94	52.8	0	0	---	0.00	30.140 
07:00	54.5	54.5	54.5	94	52.8	0	0	---	0.00	30.139 
07:05	54.4	54.4	54.4	94	52.7	0	0	---	0.00	30.139 
07:10	54.2	54.2	54.2	94	52.5	0	0	---	0.00	30.139 
07:15	54.2	54.2	54.2	95	52.8	0	0	---	0.00	30.140 
07:20	54.4	54.4	54.4	95	53.0	0	0	---	0.00	30.140 
07:25	54.4	54.4	54.4	95	53.0	0	0	---	0.00	30.140 
07:30	54.4	54.4	54.4	95	53.0	0	0	---	0.00	30.141 
07:35	54.5	54.5	54.5	95	53.1	0	0	---	0.00	30.141 
07:40	54.5	54.5	54.5	95	53.1	0	0	---	0.00	30.141 
07:45	54.5	54.5	54.5	95	53.1	0	0	---	0.00	30.145 
07:50	54.7	54.7	54.7	95	53.3	0	0	---	0.00	30.145 
07:55	55.0	55.0	55.0	95	53.6	0	0	---	0.00	30.145 
08:00	55.4	55.4	55.4	95	54.0	0	0	---	0.00	30.152 
08:05	55.7	55.7	55.7	95	54.3	0	0	---	0.00	30.152 
08:10	56.0	56.0	56.0	95	54.6	0	0	---	0.00	30.152 
08:15	56.3	56.3	56.3	95	54.9	0	0	---	0.00	30.156 
08:20	56.7	56.7	56.7	95	55.3	0	0	---	0.00	30.156 
08:25	57.2	57.2	57.2	95	55.8	0	1	90	0.00	30.156 
08:30	57.5	57.5	57.5	94	55.8	0	1	90	0.00	30.158 
08:35	57.8	57.8	57.8	94	56.1	0	2	90	0.00	30.158 
08:40	58.0	58.0	58.0	93	56.0	0	1	90	0.00	30.158 
08:45	58.0	58.0	58.0	93	56.0	0	1	90	0.00	30.158 
08:50	58.1	58.1	58.1	92	55.8	0	1	90	0.00	30.158 
08:55	58.3	58.3	58.3	92	56.0	0	1	90	0.00	30.158 
09:00	58.4	58.4	58.4	92	56.1	0	3	90	0.00	30.159 
09:05	58.6	58.6	58.6	92	56.3	0	1	90	0.00	30.159 
09:10	58.9	58.9	58.9	91	56.3	0	1	90	0.00	30.159 
09:15	59.2	59.2	59.2	91	56.6	0	1	90	0.00	30.159 
09:20	59.5	59.5	59.5	91	56.9	0	2	90	0.00	30.159 
09:25	59.8	59.8	59.8	90	56.9	1	3	90	0.00	30.159 
09:30	60.1	60.1	60.1	90	57.2	0	2	90	0.00	30.161 
09:35	60.5	60.5	60.5	89	57.2	0	1	90	0.00	30.161 
09:40	61.0	61.0	61.0	89	57.7	0	1	90	0.00	30.161 
09:45	61.5	61.5	61.5	88	57.9	0	1	90	0.00	30.158 
09:50	61.8	61.8	61.8	87	57.9	0	2	90	0.00	30.158 
09:55	62.1	62.1	62.1	86	57.9	0	1	90	0.00	30.158 
10:00	62.6	62.6	62.6	86	58.3	0	1	90	0.00	30.159 
10:05	63.1	63.1	63.1	85	58.5	0	1	90	0.00	30.159 
10:10	63.4	63.4	63.4	84	58.5	0	1	90	0.00	30.159 
10:15	63.9	63.9	63.9	83	58.6	0	1	90	0.00	30.162 
10:20	64.5	64.5	64.5	83	59.2	0	0	---	0.00	30.162 
10:25	65.3	65.3	65.3	82	59.7	0	2	90	0.00	30.162 
10:30	66.1	66.1	66.1	78	59.0	0	2	90	0.00	30.164 
10:35	67.3	67.3	67.3	76	59.5	0	2	90	0.00	30.164 
10:40	68.3	68.3	68.3	73	59.3	0	1	90	0.00	30.164 
10:45	69.3	69.3	69.3	72	59.9	0	1	90	0.00	30.165 
10:50	70.1	70.1	70.1	69	59.4	0	1	90	0.00	30.165 
10:55	70.8	70.8	70.8	68	59.7	0	1	90	0.00	30.165 
11:00	71.1	71.1	71.1	67	59.6	0	1	90	0.00	30.161 
11:05	71.5	71.5	71.5	65	59.1	0	1	90	0.00	30.161 
11:10	72.3	72.3	72.3	65	59.9	0	1	90	0.00	30.161 
11:15	73.0	73.0	73.0	62	59.2	0	1	90	0.00	30.160 
11:20	73.2	73.2	73.2	62	59.4	0	3	90	0.00	30.160 
11:25	73.3	73.3	73.3	61	59.0	0	3	90	0.00	30.160 
11:30	73.7	73.7	73.7	62	59.9	0	1	68	0.00	30.150 
11:35	73.9	73.9	73.9	61	59.6	0	1	68	0.00	30.150 
11:40	74.2	74.2	74.2	60	59.4	0	2	68	0.00	30.150 
11:45	74.9	74.9	74.9	60	60.1	0	4	90	0.00	30.150 
11:50	75.3	75.3	77.7	56	58.5	0	3	90	0.00	30.150 
11:55	76.0	76.0	78.1	57	59.6	0	1	90	0.00	30.150 
12:00	76.3	76.3	78.3	54	58.4	0	1	90	0.00	30.155 
12:05	76.7	76.7	78.5	56	59.8	0	4	90	0.00	30.155 
12:10	76.7	76.7	78.5	54	58.8	0	2	90	0.00	30.155 
12:15	76.5	76.5	78.4	53	58.1	0	2	90	0.00	30.156 
12:20	76.1	76.1	78.1	52	57.2	0	2	90	0.00	30.156 
12:25	76.1	76.1	78.1	54	58.2	0	3	90	0.00	30.156 
12:30	76.8	76.8	78.5	53	58.4	0	3	90	0.00	30.148 
12:35	77.4	77.4	78.9	52	58.4	0	2	90	0.00	30.148 
12:40	77.2	77.2	78.8	52	58.2	0	2	90	0.00	30.148 
12:45	76.3	76.3	78.2	53	57.9	1	3	90	0.00	30.148 
12:50	76.0	76.0	78.1	53	57.6	0	1	90	0.00	30.148 
12:55	75.4	75.4	77.8	54	57.6	0	2	90	0.00	30.148 
13:00	75.3	75.3	77.7	56	58.5	0	2	90	0.00	30.147 
13:05	75.3	75.3	77.7	55	58.0	0	2	90	0.00	30.147 
13:10	75.6	75.6	77.9	54	57.8	0	1	90	0.00	30.147 
13:15	76.1	76.1	78.1	56	59.2	0	3	90	0.00	30.145 
13:20	76.1	76.1	78.1	54	58.2	0	3	90	0.00	30.145 
13:25	76.5	76.5	78.4	55	59.1	0	1	90	0.00	30.145 
13:30	77.0	77.0	78.7	55	59.6	0	1	90	0.00	30.137 
13:35	77.6	77.6	79.1	54	59.6	0	2	90	0.00	30.137 
13:40	78.1	78.1	79.4	52	59.0	1	3	90	0.00	30.137 
13:45	78.1	78.1	79.5	53	59.6	1	5	90	0.00	30.130 
13:50	78.1	78.1	79.5	53	59.6	0	2	90	0.00	30.130 
13:55	78.3	78.3	79.6	53	59.7	0	2	90	0.00	30.130 
14:00	78.1	78.1	79.4	51	58.5	0	1	90	0.00	30.125 
14:05	77.9	77.9	79.3	52	58.8	0	1	90	0.00	30.125 
14:10	77.7	77.7	79.2	53	59.2	1	3	90	0.00	30.125 
14:15	77.7	77.7	79.1	52	58.6	0	2	90	0.00	30.123 
14:20	77.9	77.9	79.3	52	58.8	0	2	90	0.00	30.123 
14:25	78.1	78.1	79.4	51	58.5	1	2	90	0.00	30.123 
14:30	78.1	78.1	79.3	50	57.9	0	2	90	0.00	30.123 
14:35	77.9	77.9	79.3	52	58.8	0	3	90	0.00	30.123 
14:40	77.6	77.6	79.0	51	58.0	1	2	90	0.00	30.123 
14:45	77.4	77.4	78.9	53	58.9	0	1	90	0.00	30.121 
14:50	77.6	77.6	79.1	53	59.1	0	1	90	0.00	30.121 
14:55	77.7	77.7	79.1	52	58.6	0	2	90	0.00	30.121 
15:00	78.1	78.1	79.4	52	59.0	0	2	90	0.00	30.116 
15:05	78.3	78.3	79.4	50	58.1	0	2	90	0.00	30.116 
15:10	78.1	78.1	79.4	52	59.0	1	3	112	0.00	30.116 
15:15	78.1	78.1	79.4	51	58.5	1	3	112	0.00	30.111 
15:20	77.7	77.7	79.0	50	57.6	1	3	90	0.00	30.111 
15:25	77.9	77.9	79.3	54	59.9	0	1	90	0.00	30.111 
15:30	78.6	78.6	79.7	50	58.4	0	1	90	0.00	30.105 
15:35	79.2	79.2	80.1	49	58.4	0	3	90	0.00	30.105 
15:40	79.6	79.6	80.4	49	58.7	0	2	90	0.00	30.105 
15:45	79.2	79.2	79.9	47	57.2	0	1	90	0.00	30.101 
15:50	78.5	78.5	79.5	49	57.7	0	1	90	0.00	30.101 
15:55	78.5	78.5	79.6	50	58.3	0	1	90	0.00	30.101 
16:00	78.5	78.5	79.6	51	58.8	0	1	90	0.00	30.100 
16:05	78.6	78.6	79.6	49	57.8	0	2	90	0.00	30.100 
16:10	78.6	78.6	79.7	50	58.4	0	1	90	0.00	30.100 
16:15	78.5	78.5	79.6	50	58.3	0	1	90	0.00	30.101 
16:20	78.1	78.1	79.3	50	57.9	0	2	90	0.00	30.101 
16:25	77.7	77.7	79.0	50	57.6	0	2	90	0.00	30.101 
16:30	77.4	77.4	78.9	51	57.8	0	0	---	0.00	30.102 
16:35	77.2	77.2	78.7	51	57.6	0	1	90	0.00	30.102 
16:40	77.4	77.4	78.9	52	58.4	0	1	90	0.00	30.102 
16:45	77.2	77.2	78.8	52	58.2	1	3	90	0.00	30.099 
16:50	77.2	77.2	78.8	52	58.2	0	2	90	0.00	30.099 
16:55	77.2	77.2	78.7	51	57.6	0	2	90	0.00	30.099 
17:00	77.0	77.0	78.7	52	58.0	0	1	90	0.00	30.093 
17:05	77.0	77.0	78.6	51	57.5	0	1	90	0.00	30.093 
17:10	77.0	77.0	78.7	54	59.1	0	1	90	0.00	30.093 
17:15	77.0	77.0	78.7	54	59.1	0	1	90	0.00	30.094 
17:20	77.0	77.0	78.7	53	58.5	0	0	---	0.00	30.094 
17:25	77.0	77.0	78.7	53	58.5	0	2	90	0.00	30.094 
17:30	77.0	77.0	78.7	53	58.5	0	2	90	0.00	30.091 
17:35	76.8	76.8	78.5	52	57.8	0	1	90	0.00	30.091 
17:40	76.7	76.7	78.5	52	57.7	0	1	90	0.00	30.091 
17:45	76.7	76.7	78.5	53	58.3	0	1	90	0.00	30.088 
17:50	76.5	76.5	78.4	52	57.5	0	1	90	0.00	30.088 
17:55	76.5	76.5	78.3	51	57.0	0	1	90	0.00	30.088 
18:00	76.5	76.5	78.4	52	57.5	0	1	90	0.00	30.082 
18:05	76.5	76.5	78.4	52	57.5	0	1	90	0.00	30.082 
18:10	76.5	76.5	78.4	52	57.5	0	1	90	0.00	30.082 
18:15	76.5	76.5	78.4	52	57.5	0	1	90	0.00	30.083 
18:20	76.1	76.1	78.1	52	57.2	0	1	90	0.00	30.083 
18:25	76.0	76.0	78.1	53	57.6	0	1	90	0.00	30.083 
18:30	75.8	75.8	78.0	53	57.4	0	0	---	0.00	30.075 
18:35	75.6	75.6	77.9	54	57.8	0	0	---	0.00	30.075 
18:40	75.6	75.6	77.8	55	58.3	0	0	---	0.00	30.075 
18:45	75.4	75.4	77.7	55	58.1	0	1	90	0.00	30.073 
18:50	75.3	75.3	77.7	56	58.5	0	1	90	0.00	30.073 
18:55	75.1	75.1	77.5	57	58.8	0	0	---	0.00	30.073 
19:00	74.9	74.9	74.9	57	58.6	0	0	---	0.00	30.074 
19:05	74.9	74.9	74.9	58	59.1	0	0	---	0.00	30.074 
19:10	74.7	74.7	74.7	58	58.9	0	0	---	0.00	30.074 
19:15	74.6	74.6	74.6	58	58.8	0	0	---	0.00	30.076 
19:20	74.6	74.6	74.6	58	58.8	0	0	---	0.00	30.076 
19:25	74.4	74.4	74.4	59	59.1	0	1	90	0.00	30.076 
19:30	74.2	74.2	74.2	58	58.5	0	0	---	0.00	30.074 
19:35	74.2	74.2	74.2	59	58.9	0	0	---	0.00	30.074 
19:40	73.9	73.9	73.9	59	58.7	0	0	---	0.00	30.074 
19:45	73.7	73.7	73.7	61	59.4	0	0	---	0.00	30.073 
19:50	73.5	73.5	73.5	62	59.7	0	0	---	0.00	30.073 
19:55	73.0	73.0	73.0	62	59.2	0	0	---	0.00	30.073 
20:00	72.7	72.7	72.7	62	58.9	0	0	---	0.00	30.071 
20:05	72.3	72.3	72.3	63	59.0	0	0	---	0.00	30.071 
20:10	72.1	72.1	72.1	64	59.2	0	0	---	0.00	30.071 
20:15	71.8	71.8	71.8	65	59.4	0	0	---	0.00	30.071 
20:20	71.5	71.5	71.5	66	59.5	0	0	---	0.00	30.071 
20:25	71.1	71.1	71.1	67	59.6	0	0	---	0.00	30.071 
20:30	70.8	70.8	70.8	68	59.7	0	0	---	0.00	30.074 
20:35	70.3	70.3	70.3	69	59.6	0	0	---	0.00	30.074 
20:40	69.9	69.9	69.9	70	59.7	0	0	---	0.00	30.074 
20:45	69.6	69.6	69.6	71	59.8	0	0	---	0.00	30.074 
20:50	69.3	69.3	69.3	72	59.9	0	0	---	0.00	30.074 
20:55	69.1	69.1	69.1	73	60.1	0	0	---	0.00	30.074 
21:00	68.8	68.8	68.8	73	59.8	0	0	---	0.00	30.076 
21:05	68.4	68.4	68.4	74	59.8	0	0	---	0.00	30.076 
21:10	68.1	68.1	68.1	75	59.9	0	0	---	0.00	30.076 
21:15	67.6	67.6	67.6	77	60.1	0	0	---	0.00	30.073 
21:20	67.1	67.1	67.1	78	60.0	0	0	---	0.00	30.073 
21:25	66.8	66.8	66.8	79	60.1	0	0	---	0.00	30.073 
21:30	66.4	66.4	66.4	79	59.7	0	0	---	0.00	30.077 
21:35	66.3	66.3	66.3	80	59.9	0	0	---	0.00	30.077 
21:40	66.1	66.1	66.1	80	59.7	0	0	---	0.00	30.077 
21:45	66.0	66.0	66.0	80	59.6	0	0	---	0.00	30.083 
21:50	66.0	66.0	66.0	81	60.0	0	0	---	0.00	30.083 
21:55	65.8	65.8	65.8	81	59.8	0	1	90	0.00	30.083 
22:00	65.8	65.8	65.8	80	59.5	0	0	---	0.00	30.082 
22:05	65.8	65.8	65.8	80	59.5	0	0	---	0.00	30.082 
22:10	65.8	65.8	65.8	80	59.5	0	0	---	0.00	30.082 
22:15	65.8	65.8	65.8	80	59.5	0	0	---	0.00	30.082 
22:20	65.8	65.8	65.8	80	59.5	0	0	---	0.00	30.082 
22:25	65.8	65.8	65.8	80	59.5	0	0	---	0.00	30.082 
22:30	65.8	65.8	65.8	80	59.5	0	0	---	0.00	30.089 
22:35	65.8	65.8	65.8	80	59.5	0	0	---	0.00	30.089 
22:40	65.8	65.8	65.8	80	59.5	0	0	---	0.00	30.089 
22:45	65.8	65.8	65.8	80	59.5	0	0	---	0.00	30.089 
22:50	65.8	65.8	65.8	81	59.8	0	0	---	0.00	30.089 
22:55	65.8	65.8	65.8	81	59.8	0	0	---	0.00	30.089 
23:00	65.8	65.8	65.8	81	59.8	0	0	---	0.00	30.084 
23:05	65.6	65.6	65.6	81	59.6	0	0	---	0.00	30.084 
23:10	65.6	65.6	65.6	81	59.6	0	0	---	0.00	30.084 
23:15	65.6	65.6	65.6	82	59.9	0	0	---	0.00	30.079 
23:20	65.6	65.6	65.6	82	59.9	0	0	---	0.00	30.079 
23:25	65.6	65.6	65.6	82	59.9	0	0	---	0.00	30.079 
23:30	65.5	65.5	65.5	82	59.9	0	0	---	0.00	30.080 
23:35	65.5	65.5	65.5	82	59.9	0	0	---	0.00	30.080 
23:40	65.5	65.5	65.5	83	60.2	0	0	---	0.00	30.080 
23:45	65.5	65.5	65.5	83	60.2	0	0	---	0.00	30.079 
23:50	65.5	65.5	65.5	83	60.2	0	0	---	0.00	30.079 
23:55	65.3	65.3	65.3	84	60.3	0	0	---	0.00	30.079 

CoCoRaHS
IN-AL-39
A2 Web Hosting
Creative Commons License
GoDaddy
search engine by freefind advanced

loaded 2018-11-20 08:19:10 • last modified 2010-11-18 10:43:29
Privacy PolicyDisclaimer
• wx.awcolley.com is powered by PmWiki v.2002016 •
• all content (unless otherwise noted) © 2018 A W Colley